createdAt,value
2018-12-17T00:02:26.527Z,27.50
2018-12-17T00:04:55.194Z,26.87
2018-12-17T00:07:23.693Z,27.33
2018-12-17T00:09:52.098Z,27.33
2018-12-17T00:12:20.487Z,26.53
2018-12-17T00:14:48.895Z,28.20
2018-12-17T00:17:17.337Z,22.63
2018-12-17T00:19:45.752Z,25.93
2018-12-17T00:22:14.236Z,26.50
2018-12-17T00:24:43.343Z,22.07
2018-12-17T00:27:11.725Z,26.03
2018-12-17T00:29:40.266Z,23.53
2018-12-17T00:32:08.804Z,25.97
2018-12-17T00:34:37.327Z,24.80
2018-12-17T00:37:06.026Z,23.63
2018-12-17T00:39:34.415Z,22.57
2018-12-17T00:42:02.939Z,22.90
2018-12-17T00:44:31.316Z,21.97
2018-12-17T00:46:59.759Z,21.60
2018-12-17T00:49:28.161Z,20.83
2018-12-17T00:51:56.612Z,24.17
2018-12-17T00:54:24.995Z,22.63
2018-12-17T00:56:53.397Z,19.60
2018-12-17T00:59:21.780Z,23.83
2018-12-17T01:01:50.160Z,21.63
2018-12-17T01:04:18.542Z,18.73
2018-12-17T01:06:46.956Z,19.20
2018-12-17T01:09:15.717Z,16.13
2018-12-17T01:11:44.103Z,16.00
2018-12-17T01:14:12.467Z,13.90
2018-12-17T01:16:41.107Z,16.67
2018-12-17T01:19:09.471Z,18.97
2018-12-17T01:21:38.027Z,16.83
2018-12-17T01:24:06.385Z,16.30
2018-12-17T01:26:34.780Z,11.90
2018-12-17T01:29:03.144Z,17.73
2018-12-17T01:31:31.583Z,14.53
2018-12-17T01:34:00.003Z,17.87
2018-12-17T01:36:28.403Z,13.53
2018-12-17T01:38:56.884Z,14.80
2018-12-17T01:41:25.287Z,13.03
2018-12-17T01:43:53.655Z,15.03
2018-12-17T01:46:22.031Z,12.57
2018-12-17T01:48:50.387Z,13.40
2018-12-17T01:51:18.813Z,14.13
2018-12-17T01:53:47.189Z,17.20
2018-12-17T01:56:15.581Z,14.33
2018-12-17T01:58:43.953Z,14.73
2018-12-17T02:01:12.339Z,14.70
2018-12-17T02:03:40.703Z,18.60
2018-12-17T02:06:09.095Z,15.90
2018-12-17T02:08:37.579Z,18.63
2018-12-17T02:11:05.991Z,28.63
2018-12-17T02:13:34.477Z,17.37
2018-12-17T02:16:02.887Z,16.93
2018-12-17T02:18:31.253Z,16.13
2018-12-17T02:20:59.679Z,18.93
2018-12-17T02:23:28.045Z,19.50
2018-12-17T02:25:56.422Z,16.97
2018-12-17T02:28:24.789Z,18.30
2018-12-17T02:30:53.231Z,15.67
2018-12-17T02:33:21.596Z,13.73
2018-12-17T02:35:49.964Z,17.63
2018-12-17T02:38:18.568Z,18.73
2018-12-17T02:40:47.007Z,13.60
2018-12-17T02:43:15.378Z,12.20
2018-12-17T02:45:43.736Z,13.00
2018-12-17T02:48:12.143Z,12.50
2018-12-17T02:50:41.574Z,13.30
2018-12-17T02:53:09.948Z,13.33
2018-12-17T02:55:38.324Z,15.10
2018-12-17T02:58:06.837Z,17.73
2018-12-17T03:00:36.564Z,12.97
2018-12-17T03:03:05.096Z,14.80
2018-12-17T03:05:33.481Z,13.30
2018-12-17T03:08:01.866Z,12.30
2018-12-17T03:10:30.225Z,15.03
2018-12-17T03:12:58.656Z,14.37
2018-12-17T03:15:27.036Z,13.10
2018-12-17T03:17:55.419Z,16.10
2018-12-17T03:20:23.784Z,17.10
2018-12-17T03:22:52.183Z,21.63
2018-12-17T03:25:20.612Z,19.40
2018-12-17T03:27:49.005Z,15.17
2018-12-17T03:30:17.373Z,14.93
2018-12-17T03:32:45.893Z,17.33
2018-12-17T03:35:14.401Z,16.87
2018-12-17T03:37:42.786Z,19.20
2018-12-17T03:40:11.295Z,19.83
2018-12-17T03:42:41.000Z,16.90
2018-12-17T03:45:09.507Z,18.77
2018-12-17T03:47:37.907Z,18.50
2018-12-17T03:50:06.809Z,18.43
2018-12-17T03:52:35.197Z,18.33
2018-12-17T03:55:03.690Z,15.03
2018-12-17T03:57:32.094Z,19.30
2018-12-17T04:00:00.475Z,20.43
2018-12-17T04:02:28.839Z,21.27
2018-12-17T04:04:57.447Z,21.80
2018-12-17T04:07:25.865Z,14.97
2018-12-17T04:09:54.481Z,19.27
2018-12-17T04:12:23.818Z,19.27
2018-12-17T04:14:52.211Z,16.97
2018-12-17T04:17:20.662Z,14.23
2018-12-17T04:19:49.041Z,16.17
2018-12-17T04:22:17.418Z,17.73
2018-12-17T04:24:45.788Z,14.07
2018-12-17T04:27:14.203Z,14.90
2018-12-17T04:29:42.755Z,14.20
2018-12-17T04:32:11.146Z,19.07
2018-12-17T04:34:40.195Z,16.63
2018-12-17T04:37:08.607Z,17.93
2018-12-17T04:39:36.982Z,14.53
2018-12-17T04:42:05.392Z,18.00
2018-12-17T04:44:33.800Z,16.90
2018-12-17T04:47:02.212Z,15.07
2018-12-17T04:49:30.587Z,19.67
2018-12-17T04:51:58.974Z,14.57
2018-12-17T04:54:27.763Z,16.50
2018-12-17T04:56:56.135Z,18.83
2018-12-17T04:59:24.512Z,19.37
2018-12-17T05:01:52.920Z,19.50
2018-12-17T05:04:21.331Z,14.93
2018-12-17T05:06:49.696Z,19.00
2018-12-17T05:09:18.095Z,18.30
2018-12-17T05:11:47.411Z,19.20
2018-12-17T05:14:15.808Z,19.33
2018-12-17T05:16:44.259Z,16.83
2018-12-17T05:19:12.660Z,17.30
2018-12-17T05:21:41.169Z,18.43
2018-12-17T05:24:09.668Z,21.30
2018-12-17T05:26:38.075Z,18.50
2018-12-17T05:29:06.494Z,18.60
2018-12-17T05:31:35.610Z,23.27
2018-12-17T05:34:04.148Z,20.73
2018-12-17T05:36:32.615Z,14.97
2018-12-17T05:39:01.003Z,20.07
2018-12-17T05:41:29.403Z,23.37
2018-12-17T05:43:57.803Z,20.10
2018-12-17T05:46:26.199Z,19.47
2018-12-17T05:48:54.640Z,16.67
2018-12-17T05:51:23.011Z,21.57
2018-12-17T05:53:51.380Z,17.27
2018-12-17T05:56:19.768Z,16.70
2018-12-17T05:58:48.148Z,13.90
2018-12-17T06:01:16.537Z,12.17
2018-12-17T06:03:45.503Z,18.50
2018-12-17T06:06:13.903Z,14.93
2018-12-17T06:08:42.331Z,14.30
2018-12-17T06:11:10.786Z,17.43
2018-12-17T06:13:39.150Z,12.93
2018-12-17T06:16:07.603Z,12.20
2018-12-17T06:18:36.015Z,11.17
2018-12-17T06:21:04.828Z,11.17
2018-12-17T06:23:33.209Z,12.00
2018-12-17T06:26:02.150Z,13.80
2018-12-17T06:28:30.527Z,13.63
2018-12-17T06:30:58.903Z,13.07
2018-12-17T06:33:27.286Z,10.47
2018-12-17T06:35:55.667Z,15.47
2018-12-17T06:38:24.035Z,10.37
2018-12-17T06:40:52.415Z,10.33
2018-12-17T06:43:20.781Z,14.73
2018-12-17T06:45:49.174Z,13.13
2018-12-17T06:48:17.587Z,18.33
2018-12-17T06:50:46.060Z,11.07
2018-12-17T06:53:14.491Z,11.70
2018-12-17T06:55:42.868Z,12.57
2018-12-17T06:58:11.447Z,7.67
2018-12-17T07:00:39.829Z,8.33
2018-12-17T07:03:08.224Z,8.80
2018-12-17T07:05:36.709Z,9.97
2018-12-17T07:08:05.155Z,8.20
2018-12-17T07:10:33.545Z,8.80
2018-12-17T07:13:01.955Z,8.13
2018-12-17T07:15:30.351Z,8.43
2018-12-17T07:17:58.875Z,10.13
2018-12-17T07:20:27.239Z,7.33
2018-12-17T07:22:55.623Z,8.57
2018-12-17T07:25:23.987Z,7.80
2018-12-17T07:27:52.384Z,8.57
2018-12-17T07:30:20.805Z,7.27
2018-12-17T07:32:49.271Z,9.97
2018-12-17T07:35:17.635Z,9.97
2018-12-17T07:37:46.026Z,12.60
2018-12-17T07:40:14.407Z,8.27
2018-12-17T07:42:42.810Z,7.80
2018-12-17T07:45:11.291Z,8.97
2018-12-17T07:47:39.687Z,8.60
2018-12-17T07:50:08.315Z,7.57
2018-12-17T07:52:36.813Z,8.30
2018-12-17T07:55:05.809Z,12.60
2018-12-17T07:57:34.211Z,7.87
2018-12-17T08:00:03.394Z,8.87
2018-12-17T08:02:31.781Z,8.00
2018-12-17T08:05:00.174Z,7.77
2018-12-17T08:07:28.583Z,6.27
2018-12-17T08:09:56.955Z,8.60
2018-12-17T08:12:25.355Z,6.67
2018-12-17T08:14:53.735Z,5.93
2018-12-17T08:17:22.143Z,6.87
2018-12-17T08:19:50.506Z,5.80
2018-12-17T08:22:19.280Z,6.17
2018-12-17T08:24:47.663Z,6.00
2018-12-17T08:27:16.043Z,6.30
2018-12-17T08:29:44.415Z,5.47
2018-12-17T08:32:12.795Z,9.37
2018-12-17T08:34:41.213Z,5.00
2018-12-17T08:37:09.597Z,5.23
2018-12-17T08:39:37.991Z,5.03
2018-12-17T08:42:06.375Z,4.30
2018-12-17T08:44:34.895Z,4.10
2018-12-17T08:47:03.260Z,2.23
2018-12-17T08:49:31.661Z,5.77
2018-12-17T08:52:00.068Z,2.40
2018-12-17T08:54:28.485Z,2.73
2018-12-17T08:56:56.848Z,4.57
2018-12-17T08:59:25.243Z,3.90
2018-12-17T09:01:53.602Z,3.30
2018-12-17T09:04:22.004Z,5.30
2018-12-17T09:06:50.379Z,5.10
2018-12-17T09:09:18.823Z,5.80
2018-12-17T09:11:47.192Z,7.60
2018-12-17T09:14:15.615Z,5.73
2018-12-17T09:16:44.023Z,5.30
2018-12-17T09:19:12.428Z,4.73
2018-12-17T09:21:40.784Z,3.93
2018-12-17T09:24:09.194Z,6.53
2018-12-17T09:26:37.563Z,4.57
2018-12-17T09:29:05.969Z,5.30
2018-12-17T09:31:34.638Z,7.50
2018-12-17T09:34:03.030Z,4.57
2018-12-17T09:36:31.418Z,5.00
2018-12-17T09:38:59.799Z,4.73
2018-12-17T09:41:28.167Z,9.70
2018-12-17T09:52:44.833Z,3.13
2018-12-17T09:55:13.355Z,4.10
2018-12-17T09:57:41.740Z,5.00
2018-12-17T10:00:10.392Z,4.00
2018-12-17T10:02:38.751Z,6.83
2018-12-17T10:05:07.303Z,2.63
2018-12-17T10:07:35.647Z,3.20
2018-12-17T10:10:05.366Z,3.77
2018-12-17T10:12:33.731Z,5.87
2018-12-17T10:15:02.144Z,2.57
2018-12-17T10:17:30.511Z,3.30
2018-12-17T10:19:58.918Z,4.80
2018-12-17T10:22:27.295Z,2.87
2018-12-17T10:24:55.880Z,3.87
2018-12-17T10:27:24.268Z,8.13
2018-12-17T10:29:52.674Z,5.00
2018-12-17T10:32:21.064Z,5.77
2018-12-17T10:34:49.456Z,4.87
2018-12-17T10:37:17.855Z,7.33
2018-12-17T10:39:46.852Z,8.87
2018-12-17T10:42:15.215Z,16.03
2018-12-17T10:44:43.585Z,9.23
2018-12-17T10:47:11.985Z,8.13
2018-12-17T10:49:40.443Z,4.23
2018-12-17T10:52:08.844Z,3.47
2018-12-17T10:54:37.259Z,2.30
2018-12-17T10:57:05.677Z,4.57
2018-12-17T10:59:34.061Z,3.33
2018-12-17T11:02:07.739Z,2.37
2018-12-17T11:04:41.450Z,3.87
2018-12-17T11:07:09.965Z,4.27
2018-12-17T11:09:38.336Z,3.47
2018-12-17T11:12:24.335Z,2.77
2018-12-17T11:14:52.731Z,5.50
2018-12-17T11:17:21.135Z,3.77
2018-12-17T11:19:49.487Z,3.20
2018-12-17T11:22:17.854Z,2.77
2018-12-17T11:24:46.223Z,1.87
2018-12-17T11:27:14.599Z,3.80
2018-12-17T11:29:43.089Z,2.53
2018-12-17T11:32:11.774Z,7.20
2018-12-17T11:34:40.380Z,4.57
2018-12-17T11:37:08.771Z,3.60
2018-12-17T11:39:37.168Z,3.27
2018-12-17T11:42:05.558Z,3.73
2018-12-17T11:44:33.938Z,4.07
2018-12-17T11:47:02.359Z,2.17
2018-12-17T11:49:30.739Z,2.67
2018-12-17T11:51:59.120Z,3.53
2018-12-17T11:54:27.522Z,3.20
2018-12-17T11:57:06.587Z,1.30
2018-12-17T11:59:46.783Z,2.73
2018-12-17T12:02:15.190Z,2.53
2018-12-17T12:04:43.563Z,7.57
2018-12-17T12:07:12.331Z,2.27
2018-12-17T12:09:40.703Z,4.77
2018-12-17T12:12:09.097Z,1.87
2018-12-17T12:14:37.494Z,4.03
2018-12-17T12:17:05.892Z,4.00
2018-12-17T12:19:34.255Z,2.67
2018-12-17T12:22:02.653Z,2.73
2018-12-17T12:24:31.599Z,7.23
2018-12-17T12:26:59.988Z,4.57
2018-12-17T12:29:28.344Z,1.23
2018-12-17T12:31:56.810Z,4.03
2018-12-17T12:34:25.172Z,2.03
2018-12-17T12:36:53.682Z,2.93
2018-12-17T12:39:22.050Z,4.87
2018-12-17T12:41:50.452Z,5.93
2018-12-17T12:44:18.832Z,2.47
2018-12-17T12:46:47.281Z,4.73
2018-12-17T12:49:15.675Z,3.40
2018-12-17T12:51:44.037Z,3.40
2018-12-17T12:54:12.446Z,3.03
2018-12-17T12:56:40.821Z,6.80
2018-12-17T12:59:09.240Z,3.40
2018-12-17T13:01:37.602Z,2.53
2018-12-17T13:04:06.111Z,3.23
2018-12-17T13:06:34.473Z,2.20
2018-12-17T13:09:05.017Z,3.83
2018-12-17T13:11:33.455Z,3.00
2018-12-17T13:14:01.844Z,2.30
2018-12-17T13:16:30.284Z,3.73
2018-12-17T13:18:58.717Z,3.67
2018-12-17T13:21:27.115Z,3.07
2018-12-17T13:23:55.536Z,3.13
2018-12-17T13:26:23.904Z,6.00
2018-12-17T13:28:52.280Z,3.07
2018-12-17T13:31:20.980Z,4.47
2018-12-17T13:33:49.453Z,3.13
2018-12-17T13:36:18.654Z,4.10
2018-12-17T13:38:47.039Z,3.90
2018-12-17T13:41:15.442Z,5.77
2018-12-17T13:43:44.056Z,4.00
2018-12-17T13:46:12.531Z,2.70
2018-12-17T13:48:41.946Z,2.27
2018-12-17T13:51:15.446Z,2.40
2018-12-17T13:53:45.186Z,3.03
2018-12-17T13:56:13.619Z,3.07
2018-12-17T13:58:41.995Z,5.43
2018-12-17T14:01:10.356Z,3.47
2018-12-17T14:03:38.772Z,6.03
2018-12-17T14:06:07.155Z,3.15
2018-12-17T14:08:35.607Z,3.00
2018-12-17T14:11:04.173Z,2.73
2018-12-17T14:13:32.558Z,3.80
2018-12-17T14:16:07.051Z,6.90
2018-12-17T14:18:41.424Z,2.47
2018-12-17T14:21:15.102Z,3.70
2018-12-17T14:23:44.726Z,2.70
2018-12-17T14:26:13.424Z,5.53
2018-12-17T14:28:42.060Z,4.30
2018-12-17T14:31:10.463Z,3.73
2018-12-17T14:33:39.541Z,4.53
2018-12-17T14:36:09.178Z,3.87
2018-12-17T14:38:38.944Z,3.73
2018-12-17T14:41:07.359Z,3.43
2018-12-17T14:43:35.875Z,2.57
2018-12-17T14:46:04.279Z,4.10
2018-12-17T14:48:32.804Z,1.87
2018-12-17T14:51:01.452Z,3.90
2018-12-17T14:53:30.137Z,4.43
2018-12-17T14:55:58.604Z,6.97
2018-12-17T14:58:28.263Z,4.30
2018-12-17T15:00:56.832Z,3.40
2018-12-17T15:03:25.231Z,5.30
2018-12-17T15:05:53.627Z,2.10
2018-12-17T15:08:23.411Z,7.00
2018-12-17T15:10:51.823Z,4.43
2018-12-17T15:13:20.228Z,3.57
2018-12-17T15:15:48.839Z,4.30
2018-12-17T15:18:17.363Z,6.13
2018-12-17T15:20:45.749Z,6.10
2018-12-17T15:23:14.135Z,5.53
2018-12-17T15:25:42.539Z,7.37
2018-12-17T15:28:11.026Z,5.03
2018-12-17T15:30:39.423Z,4.90
2018-12-17T15:33:08.766Z,4.40
2018-12-17T15:35:37.268Z,3.93
2018-12-17T15:38:05.760Z,7.43
2018-12-17T15:40:34.417Z,3.37
2018-12-17T15:43:03.095Z,4.17
2018-12-17T15:45:32.032Z,4.63
2018-12-17T15:48:00.768Z,5.73
2018-12-17T15:50:29.244Z,4.37
2018-12-17T15:52:58.047Z,6.00
2018-12-17T15:55:26.720Z,6.17
2018-12-17T15:57:55.145Z,7.03
2018-12-17T16:00:23.680Z,5.27
2018-12-17T16:02:53.738Z,5.33
2018-12-17T16:05:23.552Z,6.77
2018-12-17T16:07:52.139Z,7.83
2018-12-17T16:10:21.885Z,6.27
2018-12-17T16:12:50.373Z,3.73
2018-12-17T16:15:19.247Z,6.53
2018-12-17T16:17:47.847Z,7.43
2018-12-17T16:20:16.292Z,5.13
2018-12-17T16:22:44.778Z,5.23
2018-12-17T16:25:13.599Z,7.57
2018-12-17T16:27:42.060Z,7.00
2018-12-17T16:30:11.597Z,6.17
2018-12-17T16:32:40.050Z,3.73
2018-12-17T16:35:08.731Z,6.60
2018-12-17T16:37:37.130Z,7.27
2018-12-17T16:40:07.105Z,4.83
2018-12-17T16:42:35.487Z,5.53
2018-12-17T16:45:04.516Z,4.27
2018-12-17T16:47:32.923Z,5.87
2018-12-17T16:50:01.304Z,6.57
2018-12-17T16:52:30.148Z,4.93
2018-12-17T16:54:58.517Z,4.70
2018-12-17T16:57:26.915Z,5.53
2018-12-17T16:59:55.307Z,5.23
2018-12-17T17:02:23.736Z,5.40
2018-12-17T17:04:52.115Z,6.67
2018-12-17T17:07:20.501Z,5.83
2018-12-17T17:09:49.012Z,6.50
2018-12-17T17:12:17.396Z,5.67
2018-12-17T17:14:45.775Z,7.20
2018-12-17T17:17:14.211Z,7.47
2018-12-17T17:19:42.604Z,6.47
2018-12-17T17:22:11.078Z,7.20
2018-12-17T17:24:39.569Z,6.60
2018-12-17T17:27:08.033Z,8.07
2018-12-17T17:29:36.455Z,6.97
2018-12-17T17:32:11.371Z,7.40
2018-12-17T17:34:35.567Z,5.13
2018-12-17T17:37:03.959Z,4.90
2018-12-17T17:39:32.323Z,6.40
2018-12-17T17:42:00.717Z,7.53
2018-12-17T17:44:29.105Z,6.17
2018-12-17T17:46:57.501Z,7.37
2018-12-17T17:49:26.548Z,7.23
2018-12-17T17:51:56.212Z,7.07
2018-12-17T17:54:24.844Z,5.50
2018-12-17T17:57:00.127Z,8.90
2018-12-17T17:59:28.713Z,6.10
2018-12-17T18:01:57.265Z,5.43
2018-12-17T18:04:25.646Z,6.13
2018-12-17T18:06:54.021Z,4.90
2018-12-17T18:09:22.575Z,7.87
2018-12-17T18:11:50.959Z,5.87
2018-12-17T18:14:19.390Z,7.20
2018-12-17T18:16:47.772Z,6.27
2018-12-17T18:19:16.163Z,5.23
2018-12-17T18:21:44.516Z,5.87
2018-12-17T18:24:13.310Z,5.23
2018-12-17T18:26:41.724Z,7.37
2018-12-17T18:29:10.123Z,3.93
2018-12-17T18:31:38.484Z,5.90
2018-12-17T18:34:07.109Z,5.37
2018-12-17T18:36:35.726Z,6.03
2018-12-17T18:39:08.356Z,6.90
2018-12-17T18:41:38.561Z,5.50
2018-12-17T18:44:08.016Z,8.83
2018-12-17T18:46:43.144Z,6.00
2018-12-17T18:49:12.385Z,5.03
2018-12-17T18:51:41.624Z,5.30
2018-12-17T18:54:16.224Z,9.63
2018-12-17T18:56:44.775Z,8.40
2018-12-17T18:59:13.444Z,6.30
2018-12-17T19:01:51.835Z,10.30
2018-12-17T19:04:29.400Z,6.07
2018-12-17T19:07:03.847Z,6.90
2018-12-17T19:09:33.632Z,5.03
2018-12-17T19:12:02.239Z,5.87
2018-12-17T19:14:32.396Z,9.13
2018-12-17T19:17:03.477Z,6.80
2018-12-17T19:19:32.559Z,7.13
2018-12-17T19:22:01.065Z,9.87
2018-12-17T19:24:29.744Z,10.50
2018-12-17T19:26:58.419Z,9.37
2018-12-17T19:29:27.281Z,11.87
2018-12-17T19:31:55.861Z,8.23
2018-12-17T19:34:28.309Z,7.87
2018-12-17T19:36:56.856Z,10.13
2018-12-17T19:39:25.440Z,9.33
2018-12-17T19:41:55.063Z,10.03
2018-12-17T19:44:23.681Z,16.00
2018-12-17T19:46:52.213Z,12.07
2018-12-17T19:49:20.644Z,17.20
2018-12-17T19:51:49.064Z,10.57
2018-12-17T19:54:17.534Z,12.03
2018-12-17T19:56:45.928Z,12.20
2018-12-17T19:59:14.319Z,9.77
2018-12-17T20:01:42.729Z,16.10
2018-12-17T20:04:11.205Z,13.33
2018-12-17T20:06:39.607Z,9.03
2018-12-17T20:09:08.143Z,10.03
2018-12-17T20:11:36.535Z,9.50
2018-12-17T20:14:04.962Z,11.30
2018-12-17T20:16:34.991Z,15.73
2018-12-17T20:19:03.447Z,10.80
2018-12-17T20:21:31.831Z,11.50
2018-12-17T20:24:00.784Z,13.10
2018-12-17T20:26:29.224Z,9.93
2018-12-17T20:28:57.599Z,14.30
2018-12-17T20:31:26.003Z,11.50
2018-12-17T20:33:54.379Z,11.90
2018-12-17T20:36:23.783Z,10.77
2018-12-17T20:38:52.426Z,12.93
2018-12-17T20:41:20.861Z,10.47
2018-12-17T20:43:49.214Z,13.60
2018-12-17T20:46:17.756Z,11.43
2018-12-17T20:48:46.131Z,13.67
2018-12-17T20:51:15.177Z,12.13
2018-12-17T20:53:43.792Z,12.87
2018-12-17T20:56:12.777Z,9.60
2018-12-17T20:58:41.350Z,11.13
2018-12-17T21:01:10.316Z,11.37
2018-12-17T21:03:38.720Z,11.77
2018-12-17T21:06:07.103Z,11.70
2018-12-17T21:08:35.499Z,12.63
2018-12-17T21:11:03.996Z,14.67
2018-12-17T21:13:32.383Z,12.37
2018-12-17T21:16:00.815Z,9.10
2018-12-17T21:18:29.191Z,11.47
2018-12-17T21:20:57.659Z,8.97
2018-12-17T21:23:26.365Z,13.70
2018-12-17T21:25:55.139Z,13.33
2018-12-17T21:28:23.743Z,12.90
2018-12-17T21:30:52.387Z,15.87
2018-12-17T21:33:20.913Z,13.47
2018-12-17T21:35:49.429Z,12.00
2018-12-17T21:38:17.960Z,15.60
2018-12-17T21:41:03.853Z,14.33
2018-12-17T21:43:36.047Z,16.47
2018-12-17T21:46:02.616Z,16.50
2018-12-17T21:48:31.405Z,13.23
2018-12-17T21:50:59.969Z,16.40
2018-12-17T21:53:28.391Z,14.17
2018-12-17T21:55:56.755Z,17.90
2018-12-17T21:58:25.124Z,18.10
2018-12-17T22:00:53.550Z,18.57
2018-12-17T22:03:21.937Z,19.77
2018-12-17T22:05:50.358Z,18.93
2018-12-17T22:08:18.769Z,17.93
2018-12-17T22:10:47.141Z,18.50
2018-12-17T22:13:15.620Z,13.97
2018-12-17T22:15:44.111Z,13.20
2018-12-17T22:18:12.575Z,15.27
2018-12-17T22:20:40.955Z,11.77
2018-12-17T22:23:09.331Z,11.57
2018-12-17T22:25:37.699Z,10.93
2018-12-17T22:28:06.070Z,15.47
2018-12-17T22:30:34.483Z,11.67
2018-12-17T22:33:02.873Z,11.73
2018-12-17T22:35:31.272Z,14.87
2018-12-17T22:37:59.895Z,12.87
2018-12-17T22:40:28.259Z,12.93
2018-12-17T22:42:56.660Z,14.97
2018-12-17T22:45:25.143Z,12.80
2018-12-17T22:47:53.667Z,14.63
2018-12-17T22:50:22.118Z,12.77
2018-12-17T22:52:50.571Z,16.23
2018-12-17T22:55:19.275Z,15.40
2018-12-17T22:57:47.690Z,15.60
2018-12-17T23:00:16.187Z,19.57
2018-12-17T23:02:44.583Z,16.83
2018-12-17T23:05:13.013Z,15.23
2018-12-17T23:07:41.408Z,18.40
2018-12-17T23:10:20.979Z,21.07
2018-12-17T23:13:00.600Z,18.20
2018-12-17T23:15:40.247Z,20.60
2018-12-17T23:18:07.531Z,17.57
2018-12-17T23:20:36.053Z,21.77
2018-12-17T23:23:04.873Z,31.97
2018-12-17T23:25:33.282Z,43.30
2018-12-17T23:28:01.651Z,31.23
2018-12-17T23:30:30.053Z,20.63
2018-12-17T23:32:59.950Z,21.70
2018-12-17T23:35:28.356Z,20.80
2018-12-17T23:37:56.728Z,16.43
2018-12-17T23:40:25.126Z,19.97
2018-12-17T23:42:54.016Z,22.03
2018-12-17T23:45:22.399Z,15.57
2018-12-17T23:47:51.704Z,17.10
2018-12-17T23:50:20.151Z,15.67
2018-12-17T23:52:48.515Z,15.40
2018-12-17T23:55:17.012Z,14.97
2018-12-17T23:57:45.383Z,14.90
